Time;durP1;ratioP1;P1;durP2;ratioP2;P2;SDS_P1;SDS_P2;PMS_P1;PMS_P2;Temp;Humidity;BMP_temperature;BMP_pressure;BME280_temperature;BME280_humidity;BME280_pressure;Samples;Min_cycle;Max_cycle;Signal;HPM_P1;HPM_P2
2022/06/22 00:02:14;;;;;;;2.17;1.98;;;14.70;99.90;;;;;;5039957;28;20202;-61
2022/06/22 00:05:01;;;;;;;3.03;2.30;;;14.70;99.90;;;;;;5074412;28;20167;-61
2022/06/22 00:07:35;;;;;;;3.28;2.15;;;14.80;99.90;;;;;;5074136;28;20170;-61
2022/06/22 00:10:04;;;;;;;2.90;2.30;;;14.70;99.90;;;;;;5074512;28;20205;-61
2022/06/22 00:12:32;;;;;;;3.13;2.55;;;14.70;99.90;;;;;;5074233;28;20646;-61
2022/06/22 00:15:00;;;;;;;2.88;2.15;;;14.70;99.90;;;;;;5056277;28;20181;-61
2022/06/22 00:17:32;;;;;;;2.53;2.25;;;14.70;99.90;;;;;;5056135;28;20240;-61
2022/06/22 00:20:26;;;;;;;3.65;2.30;;;14.50;99.90;;;;;;5073863;28;20175;-61
2022/06/22 00:22:54;;;;;;;2.65;2.35;;;14.40;99.90;;;;;;5074298;28;20182;-61
2022/06/22 00:25:21;;;;;;;3.45;1.95;;;14.40;99.90;;;;;;5074027;28;20170;-61
2022/06/22 00:27:47;;;;;;;2.70;2.22;;;14.50;99.90;;;;;;5073941;28;20170;-61
2022/06/22 00:30:25;;;;;;;2.60;2.28;;;14.50;99.90;;;;;;5073093;28;20279;-61
2022/06/22 00:33:13;;;;;;;2.75;2.55;;;14.40;99.90;;;;;;5074167;28;20167;-61
2022/06/22 00:35:45;;;;;;;2.78;2.42;;;14.40;99.90;;;;;;5060736;28;20244;-61
2022/06/22 00:38:37;;;;;;;3.10;2.55;;;14.50;99.90;;;;;;5073690;28;20170;-61
2022/06/22 00:41:16;;;;;;;3.10;2.28;;;14.50;99.90;;;;;;5068841;28;20183;-61
2022/06/22 00:43:42;;;;;;;2.53;2.33;;;14.60;99.90;;;;;;5073985;28;20170;-61
2022/06/22 00:46:18;;;;;;;2.90;2.60;;;14.60;99.90;;;;;;5055821;28;20636;-61
2022/06/22 00:48:47;;;;;;;3.38;2.60;;;14.60;99.90;;;;;;5073499;28;20536;-61
2022/06/22 00:51:17;;;;;;;3.35;2.60;;;14.60;99.90;;;;;;5073406;28;20631;-61
2022/06/22 00:53:51;;;;;;;3.63;2.50;;;14.50;99.90;;;;;;5073561;28;20166;-60
2022/06/22 00:56:37;;;;;;;2.95;2.60;;;14.60;99.90;;;;;;5073344;28;20601;-61
2022/06/22 00:59:26;;;;;;;3.80;2.53;;;14.70;99.90;;;;;;5073426;28;20178;-61
2022/06/22 01:02:08;;;;;;;2.70;2.08;;;14.60;99.90;;;;;;5073394;28;20167;-61
2022/06/22 01:04:55;;;;;;;3.60;2.42;;;14.70;99.90;;;;;;5073561;28;20703;-61
2022/06/22 01:08:08;;;;;;;3.05;2.38;;;14.70;99.90;;;;;;5073334;28;20171;-60
2022/06/22 01:11:01;;;;;;;3.33;2.42;;;14.80;99.90;;;;;;5064463;28;20287;-61
2022/06/22 01:13:37;;;;;;;2.97;2.00;;;15.00;99.90;;;;;;5073277;28;20245;-60
2022/06/22 01:16:15;;;;;;;3.05;2.63;;;15.00;99.90;;;;;;5073197;28;20211;-61
2022/06/22 01:18:46;;;;;;;3.58;2.53;;;15.00;99.90;;;;;;5073307;28;20170;-61
2022/06/22 01:21:23;;;;;;;3.35;2.58;;;15.00;99.90;;;;;;5073248;28;20175;-61
2022/06/22 01:24:03;;;;;;;3.08;2.42;;;14.90;99.90;;;;;;5073228;28;20526;-61
2022/06/22 01:26:38;;;;;;;3.80;2.50;;;14.90;99.90;;;;;;5073038;28;20181;-61
2022/06/22 01:29:26;;;;;;;3.92;2.67;;;15.00;99.90;;;;;;5071525;28;20221;-61
2022/06/22 01:32:00;;;;;;;3.45;2.60;;;15.00;99.90;;;;;;5073295;28;20217;-61
2022/06/22 01:34:33;;;;;;;3.05;2.35;;;15.00;99.90;;;;;;5073190;28;20261;-61
2022/06/22 01:37:11;;;;;;;3.80;2.55;;;15.10;99.90;;;;;;5073115;28;20257;-61
2022/06/22 01:39:37;;;;;;;2.65;2.03;;;15.10;99.90;;;;;;5073399;28;20170;-61
2022/06/22 01:42:12;;;;;;;3.33;2.63;;;15.20;99.90;;;;;;5057731;28;20601;-61
2022/06/22 01:44:46;;;;;;;2.83;2.33;;;15.20;99.90;;;;;;5077395;28;20162;-61
2022/06/22 01:47:40;;;;;;;2.95;2.28;;;15.20;99.90;;;;;;5076904;28;20176;-61
2022/06/22 01:50:18;;;;;;;2.45;1.92;;;15.20;99.90;;;;;;5076958;28;20209;-61
2022/06/22 01:52:46;;;;;;;2.28;2.05;;;15.20;99.90;;;;;;5075910;28;20174;-60
2022/06/22 01:55:32;;;;;;;3.50;1.80;;;15.10;99.90;;;;;;5076834;28;20159;-60
2022/06/22 01:58:18;;;;;;;1.98;1.77;;;15.00;99.90;;;;;;5076686;28;20250;-61
2022/06/22 02:00:49;;;;;;;2.17;1.92;;;15.00;99.90;;;;;;5076933;28;20198;-61
2022/06/22 02:03:23;;;;;;;2.28;1.67;;;15.00;99.90;;;;;;5076711;28;20171;-61
2022/06/22 02:09:36;;;;;;;2.22;1.90;;;15.10;99.90;;;;;;5031587;28;20218;-61
2022/06/22 02:12:20;;;;;;;3.17;1.98;;;14.90;99.90;;;;;;5075195;28;20257;-62
2022/06/22 02:14:56;;;;;;;1.95;1.75;;;14.90;99.90;;;;;;5061106;28;20608;-61
2022/06/22 02:17:27;;;;;;;1.75;1.65;;;14.80;99.90;;;;;;5076905;28;20173;-61
2022/06/22 02:20:29;;;;;;;3.20;2.08;;;14.80;99.90;;;;;;5076549;28;20170;-61
2022/06/22 02:23:09;;;;;;;2.15;1.65;;;14.80;99.90;;;;;;5076034;28;20174;-60
2022/06/22 02:25:40;;;;;;;2.40;1.90;;;15.00;99.90;;;;;;5076384;28;20200;-61
2022/06/22 02:28:06;;;;;;;2.65;2.13;;;15.00;99.90;;;;;;5076263;28;20174;-61
2022/06/22 02:30:34;;;;;;;2.00;1.80;;;14.90;99.90;;;;;;5076035;28;20210;-60
2022/06/22 02:33:00;;;;;;;2.97;1.83;;;14.90;99.90;;;;;;5076107;28;20534;-61
2022/06/22 02:35:26;;;;;;;2.60;2.30;;;14.90;99.90;;;;;;5041430;28;20228;-61
2022/06/22 02:38:07;;;;;;;2.10;1.85;;;14.90;99.90;;;;;;5075882;28;20171;-61
2022/06/22 02:44:29;;;;;;;2.55;1.80;;;14.90;99.90;;;;;;5058215;28;20702;-61
2022/06/22 02:46:15;;;;;;;2.22;1.92;;;15.00;99.90;;;;;;5075794;28;20190;-61
2022/06/22 02:48:45;;;;;;;3.13;2.38;;;15.00;99.90;;;;;;5057868;28;20199;-61
2022/06/22 02:51:27;;;;;;;3.38;2.05;;;15.00;99.90;;;;;;5075815;28;20171;-61
2022/06/22 02:53:54;;;;;;;2.42;1.95;;;14.90;99.90;;;;;;5074836;28;20496;-61
2022/06/22 02:56:29;;;;;;;2.42;2.13;;;14.80;99.90;;;;;;5075662;28;20170;-61
2022/06/22 02:58:54;;;;;;;2.90;2.35;;;14.80;99.90;;;;;;5074387;28;20189;-61
2022/06/22 03:01:25;;;;;;;3.33;2.10;;;14.80;99.90;;;;;;5075773;28;20174;-61
2022/06/22 03:03:58;;;;;;;3.83;2.47;;;14.80;99.90;;;;;;5075480;28;20765;-61
2022/06/22 03:06:31;;;;;;;4.60;2.60;;;14.80;99.90;;;;;;5075489;28;20316;-61
2022/06/22 03:09:03;;;;;;;2.40;2.20;;;14.90;99.90;;;;;;5075359;28;20538;-61
2022/06/22 03:11:30;;;;;;;2.38;2.10;;;15.00;99.90;;;;;;5075392;28;20166;-61
2022/06/22 03:14:13;;;;;;;3.10;2.00;;;14.80;99.90;;;;;;5075380;28;20185;-60
2022/06/22 03:16:43;;;;;;;3.03;1.95;;;14.90;99.90;;;;;;5075235;28;20175;-61
2022/06/22 03:19:13;;;;;;;2.97;2.05;;;14.80;99.90;;;;;;5075115;28;20508;-61
2022/06/22 03:21:42;;;;;;;2.72;2.20;;;14.70;99.90;;;;;;5075083;28;20249;-61
2022/06/22 03:24:29;;;;;;;3.00;2.67;;;14.70;99.90;;;;;;5075288;28;20216;-60
2022/06/22 03:27:04;;;;;;;3.65;2.63;;;14.70;99.90;;;;;;5075331;28;20198;-60
2022/06/22 03:29:44;;;;;;;4.32;2.67;;;14.70;99.90;;;;;;5074763;28;20648;-60
2022/06/22 03:32:26;;;;;;;3.17;2.33;;;14.80;99.90;;;;;;5075309;28;20174;-61
2022/06/22 03:35:00;;;;;;;2.38;2.17;;;14.90;99.90;;;;;;5073625;28;20255;-61
2022/06/22 03:37:41;;;;;;;3.15;2.47;;;14.80;99.90;;;;;;5074871;28;20192;-61
2022/06/22 03:40:23;;;;;;;2.30;2.10;;;14.80;99.90;;;;;;5074761;28;20182;-60
2022/06/22 03:42:53;;;;;;;2.00;1.80;;;14.80;99.90;;;;;;5074904;28;20174;-61
2022/06/22 03:45:30;;;;;;;2.55;2.05;;;14.70;99.90;;;;;;5074662;28;20179;-60
2022/06/22 03:48:10;;;;;;;2.22;1.92;;;14.70;99.90;;;;;;5074647;28;20178;-60
2022/06/22 03:50:51;;;;;;;2.47;1.88;;;14.70;99.90;;;;;;5074460;28;20190;-61
2022/06/22 03:53:46;;;;;;;2.80;2.08;;;14.70;99.90;;;;;;5074663;28;20178;-61
2022/06/22 03:56:16;;;;;;;2.67;2.47;;;14.70;99.90;;;;;;5074479;28;20224;-61
2022/06/22 03:58:45;;;;;;;2.60;2.35;;;14.70;99.90;;;;;;5074210;28;20167;-61
2022/06/22 04:01:12;;;;;;;2.47;2.13;;;14.80;99.90;;;;;;5074430;28;20186;-61
2022/06/22 04:03:37;;;;;;;2.53;2.30;;;14.70;99.90;;;;;;5056785;28;20175;-61
2022/06/22 04:06:04;;;;;;;2.70;2.20;;;14.90;99.90;;;;;;5056610;28;20544;-61
2022/06/22 04:08:39;;;;;;;3.35;2.25;;;14.90;99.90;;;;;;5074187;28;20171;-61
2022/06/22 04:11:34;;;;;;;2.28;2.00;;;15.00;99.90;;;;;;5074436;28;20173;-61
2022/06/22 04:14:11;;;;;;;2.65;2.03;;;14.90;99.90;;;;;;5060587;28;20202;-61
2022/06/22 04:16:43;;;;;;;3.28;2.40;;;14.90;99.90;;;;;;5074375;28;20182;-61
2022/06/22 04:19:13;;;;;;;3.10;2.10;;;14.90;99.90;;;;;;5073994;28;20172;-61
2022/06/22 04:21:51;;;;;;;3.53;2.55;;;15.00;99.90;;;;;;5073808;28;20163;-61
2022/06/22 04:24:25;;;;;;;2.85;2.30;;;14.90;99.90;;;;;;5056148;28;20202;-61
2022/06/22 04:27:11;;;;;;;4.13;2.20;;;15.10;99.90;;;;;;5074014;28;20205;-61
2022/06/22 04:29:48;;;;;;;4.55;2.42;;;15.10;99.90;;;;;;5055643;28;20671;-61
2022/06/22 04:32:40;;;;;;;3.08;2.13;;;15.20;99.90;;;;;;5074252;28;20239;-61
2022/06/22 04:35:41;;;;;;;3.90;2.67;;;15.20;99.90;;;;;;5074134;28;20163;-61
2022/06/22 04:38:19;;;;;;;4.57;2.28;;;15.30;99.90;;;;;;5073592;28;20221;-60
2022/06/22 04:41:07;;;;;;;2.22;2.03;;;15.30;99.90;;;;;;5073797;28;20166;-60
2022/06/22 04:43:34;;;;;;;4.68;2.70;;;15.30;99.90;;;;;;5073623;28;20179;-61
2022/06/22 04:46:00;;;;;;;3.83;2.95;;;15.30;99.90;;;;;;5073907;28;20174;-61
2022/06/22 04:48:28;;;;;;;2.60;2.40;;;15.30;99.90;;;;;;5055399;28;20224;-61
2022/06/22 04:50:58;;;;;;;6.10;2.80;;;15.40;99.90;;;;;;5072772;28;20635;-62
2022/06/22 04:53:41;;;;;;;2.80;2.08;;;15.40;99.90;;;;;;5073661;28;20175;-63
2022/06/22 04:56:11;;;;;;;2.65;2.40;;;15.50;99.90;;;;;;5073479;28;20162;-59
2022/06/22 04:58:51;;;;;;;3.55;2.58;;;15.40;99.90;;;;;;5073218;28;20174;-59
2022/06/22 05:01:34;;;;;;;3.47;2.38;;;15.50;99.90;;;;;;5073097;28;20239;-59
2022/06/22 05:04:22;;;;;;;3.42;2.60;;;15.60;99.90;;;;;;5072279;28;20231;-59
2022/06/22 05:07:11;;;;;;;2.85;2.42;;;15.80;99.90;;;;;;5073096;28;20170;-60
2022/06/22 05:09:43;;;;;;;2.53;2.28;;;15.80;99.90;;;;;;5073146;28;20622;-60
2022/06/22 05:12:14;;;;;;;3.15;2.35;;;15.80;99.90;;;;;;5073365;28;20181;-59
2022/06/22 05:14:41;;;;;;;3.05;2.50;;;15.80;99.90;;;;;;5073548;28;20167;-60
2022/06/22 05:17:27;;;;;;;2.97;2.67;;;15.70;99.90;;;;;;5072775;28;20177;-59
2022/06/22 05:19:58;;;;;;;4.28;2.83;;;15.80;99.90;;;;;;5073149;28;20175;-60
2022/06/22 05:22:24;;;;;;;2.67;2.42;;;15.70;99.90;;;;;;5073310;28;20167;-60
2022/06/22 05:24:58;;;;;;;4.85;3.08;;;15.80;99.90;;;;;;5073213;28;20235;-59
2022/06/22 05:27:28;;;;;;;4.03;2.83;;;15.90;99.90;;;;;;5073153;28;20171;-60
2022/06/22 05:30:01;;;;;;;5.45;2.90;;;16.00;99.90;;;;;;5073116;28;20233;-60
2022/06/22 05:32:52;;;;;;;3.33;2.60;;;16.20;99.90;;;;;;5054964;28;20163;-61
2022/06/22 05:35:28;;;;;;;3.17;2.28;;;16.30;99.90;;;;;;5073371;28;20171;-60
2022/06/22 05:37:55;;;;;;;3.05;2.28;;;16.40;99.90;;;;;;5073103;28;20174;-60
2022/06/22 05:40:25;;;;;;;2.80;2.45;;;16.40;99.90;;;;;;5073000;28;20171;-59
2022/06/22 05:42:51;;;;;;;3.58;2.72;;;16.40;99.90;;;;;;5072926;28;20169;-60
2022/06/22 05:45:21;;;;;;;4.07;2.45;;;16.40;99.90;;;;;;5073122;28;20193;-60
2022/06/22 05:47:47;;;;;;;3.40;2.83;;;16.50;99.90;;;;;;5073401;28;20170;-59
2022/06/22 05:50:38;;;;;;;3.28;2.72;;;16.50;99.90;;;;;;5072989;28;20693;-59
2022/06/22 05:53:39;;;;;;;3.20;2.45;;;16.70;99.90;;;;;;5072785;28;20171;-60
2022/06/22 05:56:10;;;;;;;3.50;2.70;;;16.90;99.90;;;;;;5072858;28;20182;-59
2022/06/22 05:58:49;;;;;;;3.90;2.33;;;17.00;99.90;;;;;;5073022;28;20190;-59
2022/06/22 06:01:36;;;;;;;3.25;2.25;;;17.20;99.90;;;;;;5072889;28;20646;-59
2022/06/22 06:04:23;;;;;;;3.10;2.00;;;17.40;99.90;;;;;;5072742;28;20565;-60
2022/06/22 06:06:50;;;;;;;4.55;2.33;;;17.60;99.90;;;;;;5072895;28;20185;-60
2022/06/22 06:09:24;;;;;;;2.60;1.80;;;17.60;99.90;;;;;;5072848;28;20555;-60
2022/06/22 06:12:00;;;;;;;1.95;1.60;;;17.80;99.90;;;;;;5071479;28;20183;-60
2022/06/22 06:14:37;;;;;;;2.10;1.88;;;17.60;99.90;;;;;;5072864;28;20212;-59
2022/06/22 06:17:38;;;;;;;2.17;1.75;;;17.80;99.90;;;;;;5072794;28;20177;-60
2022/06/22 06:20:14;;;;;;;2.92;1.70;;;18.00;99.90;;;;;;5051133;28;20193;-59
2022/06/22 06:22:40;;;;;;;2.38;1.83;;;17.90;99.90;;;;;;5072510;28;20637;-60
2022/06/22 06:28:26;;;;;;;2.85;2.13;;;18.00;99.90;;;;;;5073974;28;20221;-59
2022/06/22 06:30:59;;;;;;;1.75;1.52;;;18.00;99.90;;;;;;5075783;28;20198;-60
2022/06/22 06:33:34;;;;;;;3.10;2.00;;;18.10;99.90;;;;;;5076402;28;20175;-59
2022/06/22 06:36:00;;;;;;;3.13;1.75;;;18.30;99.90;;;;;;5076086;28;20220;-60
2022/06/22 06:38:36;;;;;;;3.08;2.33;;;18.50;99.90;;;;;;5075986;28;20206;-59
2022/06/22 06:41:11;;;;;;;2.40;1.73;;;18.70;99.90;;;;;;5075950;28;20216;-59
2022/06/22 06:43:39;;;;;;;3.28;1.90;;;18.80;99.90;;;;;;5075946;28;20472;-59
2022/06/22 06:46:17;;;;;;;3.22;2.08;;;18.80;99.90;;;;;;5075985;28;20163;-60
2022/06/22 06:48:48;;;;;;;3.40;1.98;;;19.00;99.90;;;;;;5075802;28;20662;-59
2022/06/22 06:51:18;;;;;;;2.35;1.50;;;19.10;99.90;;;;;;5075854;28;20182;-60
2022/06/22 06:53:53;;;;;;;1.85;1.60;;;19.00;99.90;;;;;;5075598;28;20178;-59
2022/06/22 06:56:28;;;;;;;2.80;1.80;;;18.90;99.90;;;;;;5075682;28;20163;-58
2022/06/22 06:58:56;;;;;;;1.77;1.50;;;19.10;99.90;;;;;;5075562;28;20650;-60
2022/06/22 07:01:26;;;;;;;1.70;1.50;;;18.90;99.90;;;;;;5075760;28;20174;-60
2022/06/22 07:03:58;;;;;;;1.73;1.30;;;18.90;99.90;;;;;;5075396;28;20174;-60
2022/06/22 07:06:27;;;;;;;2.08;1.40;;;18.90;99.90;;;;;;5075695;28;20219;-60
2022/06/22 07:09:07;;;;;;;2.53;1.75;;;19.10;99.90;;;;;;5057616;28;20255;-60
2022/06/22 07:11:48;;;;;;;1.77;1.50;;;19.10;99.90;;;;;;5075427;28;20221;-59
2022/06/22 07:14:41;;;;;;;1.60;1.50;;;18.90;99.90;;;;;;5075236;28;20227;-60
2022/06/22 07:17:13;;;;;;;3.60;1.75;;;18.90;99.90;;;;;;5071957;28;20175;-60
2022/06/22 07:19:49;;;;;;;2.13;1.50;;;18.90;99.90;;;;;;5057330;28;20277;-60
2022/06/22 07:22:37;;;;;;;1.40;1.10;;;19.00;99.90;;;;;;5075514;28;20182;-60
2022/06/22 07:25:15;;;;;;;2.15;1.35;;;19.20;99.90;;;;;;5074797;28;20202;-60
2022/06/22 07:27:50;;;;;;;1.73;1.45;;;19.20;99.90;;;;;;5075570;28;20492;-60
2022/06/22 07:30:24;;;;;;;2.10;1.77;;;19.30;99.90;;;;;;5075244;28;20279;-60
2022/06/22 07:33:02;;;;;;;2.08;1.58;;;19.40;99.90;;;;;;5075019;28;20273;-59
2022/06/22 07:35:58;;;;;;;1.83;1.67;;;19.80;99.90;;;;;;5074804;28;20178;-59
2022/06/22 07:38:27;;;;;;;2.30;1.73;;;20.00;99.90;;;;;;5074849;28;20224;-59
2022/06/22 07:43:38;;;;;;;1.92;1.60;;;20.30;99.90;;;;;;5059815;28;20216;-59
2022/06/22 07:46:06;;;;;;;4.13;1.63;;;20.30;99.90;;;;;;5057145;28;20175;-59
2022/06/22 07:48:39;;;;;;;1.20;1.10;;;20.60;99.90;;;;;;5039966;28;20175;-59
2022/06/22 07:51:08;;;;;;;1.75;1.17;;;20.80;99.90;;;;;;5074531;28;20186;-60
2022/06/22 07:53:41;;;;;;;1.60;1.33;;;20.90;99.90;;;;;;5074526;28;20167;-59
2022/06/22 07:56:24;;;;;;;1.92;1.50;;;20.90;99.90;;;;;;5074484;28;20167;-59
2022/06/22 07:59:00;;;;;;;2.60;1.30;;;21.20;99.60;;;;;;5074520;28;20181;-59
2022/06/22 08:01:29;;;;;;;2.60;1.17;;;21.40;99.90;;;;;;5074397;28;20173;-58
2022/06/22 08:04:24;;;;;;;1.10;1.00;;;21.50;98.80;;;;;;5074348;28;20162;-59
2022/06/22 08:06:55;;;;;;;1.73;1.20;;;21.90;99.30;;;;;;5071555;28;20195;-59
2022/06/22 08:09:38;;;;;;;1.27;1.00;;;22.00;98.50;;;;;;5074146;28;20237;-59
2022/06/22 08:12:18;;;;;;;1.08;0.90;;;21.90;98.00;;;;;;5074225;28;20174;-59
2022/06/22 08:14:48;;;;;;;1.08;0.90;;;22.00;97.70;;;;;;5074082;28;20174;-59
2022/06/22 08:17:43;;;;;;;1.40;0.93;;;22.30;97.80;;;;;;5074071;28;20178;-59
2022/06/22 08:20:13;;;;;;;1.42;1.05;;;22.40;97.20;;;;;;5056235;28;20185;-59
2022/06/22 08:22:41;;;;;;;1.42;1.00;;;22.40;96.50;;;;;;5073893;28;20623;-59
2022/06/22 08:25:07;;;;;;;2.97;0.88;;;22.50;96.80;;;;;;5073917;28;20167;-59
2022/06/22 08:27:34;;;;;;;1.13;1.02;;;22.70;96.70;;;;;;5056142;28;20179;-57
2022/06/22 08:30:00;;;;;;;1.00;1.00;;;22.90;96.60;;;;;;5073832;28;20229;-59
2022/06/22 08:32:34;;;;;;;0.60;0.60;;;22.90;96.40;;;;;;5055997;28;20555;-60
2022/06/22 08:35:20;;;;;;;1.02;0.93;;;23.00;96.50;;;;;;5055971;28;20574;-58
2022/06/22 08:38:04;;;;;;;0.80;0.80;;;23.20;95.90;;;;;;5073704;28;20179;-59
2022/06/22 08:40:41;;;;;;;1.08;0.98;;;23.00;94.50;;;;;;5073858;28;20175;-60
2022/06/22 08:43:23;;;;;;;1.40;0.90;;;22.70;95.00;;;;;;5055788;28;20181;-57
2022/06/22 08:46:11;;;;;;;0.90;0.80;;;22.80;95.30;;;;;;5073585;28;20198;-60
2022/06/22 08:48:56;;;;;;;0.70;0.70;;;23.00;94.60;;;;;;5073696;28;20179;-60
2022/06/22 08:51:36;;;;;;;0.82;0.70;;;23.30;95.10;;;;;;5073041;28;20213;-59
2022/06/22 08:54:05;;;;;;;1.85;1.35;;;23.50;94.80;;;;;;5073569;28;20377;-60
2022/06/22 08:57:02;;;;;;;2.00;0.98;;;23.30;94.10;;;;;;5073332;28;20206;-57
2022/06/22 08:59:51;;;;;;;1.00;0.95;;;23.00;93.90;;;;;;5073402;28;20214;-60
2022/06/22 09:02:35;;;;;;;1.25;1.00;;;23.00;94.10;;;;;;5073372;28;20173;-60
2022/06/22 09:05:29;;;;;;;2.20;0.88;;;23.20;94.10;;;;;;5073244;28;20177;-60
2022/06/22 09:08:24;;;;;;;0.90;0.80;;;23.20;93.50;;;;;;5073422;28;20163;-57
2022/06/22 09:11:16;;;;;;;1.15;0.95;;;23.30;94.90;;;;;;5026217;28;20632;-58
2022/06/22 09:13:55;;;;;;;1.25;0.98;;;23.60;94.00;;;;;;5073122;28;20191;-57
2022/06/22 09:16:44;;;;;;;1.00;0.90;;;23.60;94.50;;;;;;5073322;28;20174;-57
2022/06/22 09:19:24;;;;;;;0.95;0.90;;;23.40;93.50;;;;;;5073162;28;20170;-58
2022/06/22 09:22:16;;;;;;;1.00;0.90;;;23.70;93.30;;;;;;5073130;28;20171;-60
2022/06/22 09:25:01;;;;;;;0.90;0.90;;;23.60;93.00;;;;;;5073179;28;20163;-59
2022/06/22 09:27:41;;;;;;;2.25;1.17;;;23.90;92.40;;;;;;5073142;28;20496;-59
2022/06/22 09:30:31;;;;;;;1.17;1.10;;;24.20;93.10;;;;;;5072883;28;20227;-58
2022/06/22 09:33:15;;;;;;;1.77;0.90;;;24.00;91.40;;;;;;5073252;28;20639;-58
2022/06/22 09:35:53;;;;;;;0.90;0.77;;;24.20;92.80;;;;;;5073031;28;20171;-59
2022/06/22 09:38:30;;;;;;;1.10;0.98;;;24.50;92.50;;;;;;5072936;28;20171;-58
2022/06/22 09:41:24;;;;;;;0.85;0.80;;;24.10;91.30;;;;;;5073118;28;20662;-58
2022/06/22 09:44:04;;;;;;;0.90;0.70;;;24.30;92.60;;;;;;5072905;28;20567;-60
2022/06/22 09:46:48;;;;;;;1.15;0.85;;;24.50;92.90;;;;;;5072893;28;20231;-58
2022/06/22 09:49:23;;;;;;;1.38;1.17;;;24.60;91.60;;;;;;5072762;28;20713;-59
2022/06/22 09:52:09;;;;;;;2.58;1.13;;;24.70;91.50;;;;;;5072965;28;20166;-59
2022/06/22 09:58:32;;;;;;;1.00;0.93;;;24.60;91.70;;;;;;4972253;28;20225;-59
2022/06/22 10:01:31;;;;;;;1.20;0.75;;;24.60;91.20;;;;;;5072756;28;20202;-59
2022/06/22 10:04:16;;;;;;;1.35;0.90;;;24.70;91.10;;;;;;5076747;28;20179;-58
2022/06/22 10:06:44;;;;;;;1.20;0.93;;;24.60;91.00;;;;;;5076487;28;20167;-59
2022/06/22 10:09:21;;;;;;;0.80;0.73;;;24.60;91.20;;;;;;5075215;28;20217;-59
2022/06/22 10:11:54;;;;;;;1.10;1.00;;;24.60;91.40;;;;;;5076464;28;20174;-59
2022/06/22 10:14:45;;;;;;;0.95;0.80;;;24.90;91.80;;;;;;5076405;28;20162;-58
2022/06/22 10:17:44;;;;;;;1.48;1.00;;;24.80;90.60;;;;;;5076287;28;20537;-59
2022/06/22 10:20:51;;;;;;;1.08;0.90;;;24.70;90.90;;;;;;5076566;28;20527;-59
2022/06/22 10:23:48;;;;;;;0.70;0.70;;;24.50;91.00;;;;;;4987314;28;20186;-59
2022/06/22 10:26:17;;;;;;;0.95;0.90;;;25.00;90.90;;;;;;5076133;28;20170;-59
2022/06/22 10:29:14;;;;;;;0.70;0.70;;;25.10;90.60;;;;;;5076214;28;20270;-58
2022/06/22 10:32:16;;;;;;;0.93;0.90;;;25.30;90.50;;;;;;5076230;28;20588;-59
2022/06/22 10:35:00;;;;;;;0.80;0.80;;;25.10;90.00;;;;;;5076045;28;20170;-59
2022/06/22 10:37:50;;;;;;;1.77;1.15;;;25.10;90.30;;;;;;5076139;28;20166;-59
2022/06/22 10:46:37;;;;;;;1.70;0.90;;;25.20;88.20;;;;;;5076200;28;20704;-59
2022/06/22 10:49:28;;;;;;;0.90;0.90;;;25.30;88.80;;;;;;5075973;28;20198;-60
2022/06/22 10:52:10;;;;;;;2.00;0.80;;;25.50;89.40;;;;;;5076225;28;20177;-59
2022/06/22 10:55:02;;;;;;;1.70;1.00;;;25.90;88.30;;;;;;5075751;28;20183;-58
2022/06/22 10:57:58;;;;;;;1.35;0.80;;;25.90;87.00;;;;;;5075614;28;20501;-59
2022/06/22 11:00:42;;;;;;;1.25;1.10;;;25.70;87.40;;;;;;5075805;28;20181;-58
2022/06/22 11:03:36;;;;;;;0.77;0.77;;;25.50;87.40;;;;;;5075619;28;20175;-59
2022/06/22 11:06:51;;;;;;;0.80;0.70;;;25.70;87.70;;;;;;5075935;28;20253;-59
2022/06/22 11:09:20;;;;;;;1.13;1.00;;;25.80;86.30;;;;;;5075045;28;20559;-59
2022/06/22 11:11:48;;;;;;;1.20;0.90;;;25.70;86.30;;;;;;5075378;28;20175;-58
2022/06/22 11:15:00;;;;;;;1.20;0.98;;;25.70;85.10;;;;;;5074597;28;20194;-59
2022/06/22 11:18:05;;;;;;;1.23;0.85;;;25.40;85.60;;;;;;5075495;28;20177;-59
2022/06/22 11:20:45;;;;;;;0.70;0.70;;;25.70;87.40;;;;;;5075191;28;20678;-58
2022/06/22 11:23:17;;;;;;;1.35;0.90;;;25.80;85.20;;;;;;5075395;28;20174;-58
2022/06/22 11:31:52;;;;;;;1.15;0.95;;;26.00;85.70;;;;;;5075391;28;20567;-58
2022/06/22 11:34:18;;;;;;;0.60;0.60;;;26.10;85.20;;;;;;5075554;28;20178;-59
2022/06/22 11:36:51;;;;;;;0.85;0.85;;;26.30;84.80;;;;;;5074956;28;20620;-58
2022/06/22 11:39:52;;;;;;;0.73;0.70;;;25.80;81.40;;;;;;5074958;28;20202;-59
2022/06/22 11:42:33;;;;;;;1.02;0.88;;;25.70;84.20;;;;;;5075076;28;20170;-59
2022/06/22 11:48:30;;;;;;;0.82;0.82;;;26.10;85.50;;;;;;5075006;28;20252;-58
2022/06/22 11:51:14;;;;;;;0.70;0.70;;;26.00;85.40;;;;;;5074540;28;20206;-58
2022/06/22 11:54:18;;;;;;;1.08;0.90;;;26.10;84.10;;;;;;5074542;28;20173;-59
2022/06/22 11:57:01;;;;;;;1.73;0.98;;;25.90;82.70;;;;;;5074634;28;20173;-58
2022/06/22 11:59:44;;;;;;;0.88;0.88;;;26.10;82.90;;;;;;5074537;28;20190;-59
2022/06/22 12:02:37;;;;;;;1.08;0.82;;;25.70;84.50;;;;;;5074633;28;20186;-58
2022/06/22 12:05:28;;;;;;;1.05;1.00;;;25.90;84.90;;;;;;5074614;28;20524;-59
2022/06/22 12:08:37;;;;;;;1.00;0.90;;;26.00;84.80;;;;;;5074346;28;20177;-59
2022/06/22 12:11:40;;;;;;;0.82;0.80;;;26.10;82.90;;;;;;5074412;28;20186;-59
2022/06/22 12:17:43;;;;;;;1.17;1.00;;;26.50;82.60;;;;;;5074274;28;20178;-59
2022/06/22 12:20:34;;;;;;;0.70;0.70;;;26.60;81.80;;;;;;5074201;28;20321;-58
2022/06/22 12:23:06;;;;;;;1.00;0.80;;;26.20;81.90;;;;;;5074014;28;20166;-59
2022/06/22 12:26:12;;;;;;;0.70;0.70;;;26.30;81.00;;;;;;5073421;28;20209;-58
2022/06/22 12:29:16;;;;;;;0.77;0.77;;;26.70;81.10;;;;;;5074031;28;20171;-59
2022/06/22 12:31:55;;;;;;;1.05;0.70;;;26.70;79.70;;;;;;5055662;28;20190;-59
2022/06/22 12:34:30;;;;;;;0.60;0.60;;;26.10;80.00;;;;;;5074093;28;20163;-58
2022/06/22 12:37:08;;;;;;;0.57;0.57;;;26.20;80.50;;;;;;5073998;28;20634;-58
2022/06/22 12:39:42;;;;;;;0.70;0.70;;;26.50;80.20;;;;;;5073703;28;20177;-59
2022/06/22 12:42:13;;;;;;;2.75;1.00;;;26.70;81.60;;;;;;5073891;28;20220;-58
2022/06/22 12:44:53;;;;;;;0.65;0.65;;;26.30;79.90;;;;;;5074002;28;20531;-59
2022/06/22 12:47:31;;;;;;;0.70;0.70;;;26.30;81.50;;;;;;5073806;28;20175;-58
2022/06/22 12:50:33;;;;;;;0.70;0.70;;;26.40;81.10;;;;;;5072216;28;20259;-59
2022/06/22 12:53:05;;;;;;;1.05;0.90;;;26.40;80.10;;;;;;5055752;28;20170;-58
2022/06/22 12:55:36;;;;;;;2.03;0.70;;;26.60;78.00;;;;;;5073857;28;20159;-58
2022/06/22 12:58:23;;;;;;;1.02;0.70;;;26.70;80.00;;;;;;5073647;28;20171;-59
2022/06/22 13:00:49;;;;;;;0.57;0.57;;;26.80;79.40;;;;;;5055804;28;20706;-59
2022/06/22 13:03:20;;;;;;;0.80;0.80;;;26.80;79.00;;;;;;5073678;28;20177;-59
2022/06/22 13:05:46;;;;;;;1.02;0.75;;;26.60;78.60;;;;;;5073480;28;20162;-59
2022/06/22 13:08:23;;;;;;;2.55;0.90;;;26.50;78.60;;;;;;5073303;28;20182;-58
2022/06/22 13:10:56;;;;;;;0.65;0.60;;;26.20;77.50;;;;;;5073057;28;20198;-59
2022/06/22 13:13:59;;;;;;;2.75;1.08;;;26.20;78.20;;;;;;5073785;28;20265;-59
2022/06/22 13:16:36;;;;;;;0.40;0.40;;;26.10;78.70;;;;;;5073341;28;20635;-59
2022/06/22 13:19:24;;;;;;;0.57;0.57;;;26.40;79.30;;;;;;5073154;28;20178;-59
2022/06/22 13:22:10;;;;;;;0.50;0.50;;;26.20;77.60;;;;;;5073275;28;20592;-59
2022/06/22 13:24:45;;;;;;;0.88;0.70;;;26.50;77.80;;;;;;5073304;28;20181;-59
2022/06/22 13:27:47;;;;;;;0.50;0.50;;;26.70;77.30;;;;;;5073559;28;20166;-59
2022/06/22 13:30:18;;;;;;;0.80;0.57;;;26.80;76.20;;;;;;5072987;28;20682;-59
2022/06/22 13:33:02;;;;;;;0.70;0.70;;;26.70;76.00;;;;;;5073193;28;20224;-58
2022/06/22 13:35:40;;;;;;;0.50;0.50;;;26.70;74.00;;;;;;5073140;28;20189;-59
2022/06/22 13:38:14;;;;;;;0.52;0.52;;;26.80;75.10;;;;;;5075662;28;20195;-55
2022/06/22 13:41:15;;;;;;;0.82;0.57;;;26.80;73.70;;;;;;5077316;28;20185;-59
2022/06/22 13:44:05;;;;;;;2.50;0.60;;;26.90;74.20;;;;;;5077016;28;20194;-59
2022/06/22 13:46:58;;;;;;;0.73;0.70;;;27.10;74.80;;;;;;5077286;28;20178;-58
2022/06/22 13:49:44;;;;;;;0.60;0.60;;;27.10;75.90;;;;;;5076963;28;20293;-59
2022/06/22 13:52:15;;;;;;;0.50;0.50;;;27.20;75.50;;;;;;5076921;28;20624;-59
2022/06/22 13:55:18;;;;;;;1.58;0.65;;;27.30;76.50;;;;;;5076727;28;20228;-59
2022/06/22 13:58:00;;;;;;;0.52;0.52;;;27.30;75.00;;;;;;5076997;28;20566;-59
2022/06/22 14:00:41;;;;;;;0.73;0.70;;;27.20;74.10;;;;;;5076725;28;20178;-58
2022/06/22 14:04:03;;;;;;;0.60;0.60;;;27.10;75.00;;;;;;5076733;28;20171;-59
2022/06/22 14:06:48;;;;;;;0.60;0.60;;;27.40;73.50;;;;;;4975723;28;20270;-59
2022/06/22 14:09:16;;;;;;;1.33;0.80;;;27.20;71.80;;;;;;4975724;28;20206;-59
2022/06/22 14:11:56;;;;;;;0.80;0.80;;;27.10;72.30;;;;;;5049614;28;20232;-60
2022/06/22 14:14:36;;;;;;;0.85;0.63;;;27.30;73.90;;;;;;5076467;28;20171;-58
2022/06/22 14:17:26;;;;;;;0.70;0.68;;;27.30;73.30;;;;;;5076669;28;20170;-59
2022/06/22 14:20:27;;;;;;;0.50;0.50;;;27.30;71.60;;;;;;5076584;28;20182;-59
2022/06/22 14:23:03;;;;;;;0.50;0.50;;;27.10;72.60;;;;;;5023265;28;20186;-59
2022/06/22 14:25:54;;;;;;;0.57;0.57;;;27.10;74.60;;;;;;5076383;28;20196;-59
2022/06/22 14:28:42;;;;;;;0.85;0.85;;;27.20;74.10;;;;;;5029382;28;20487;-56